Información del aeropuerto BKPR

Información de pista
Pista 17 Longitud 8165 ft Anchura 148 ft
Elevación 1789 ft Umbral 0 ft Rumbo 176
Pista 35 Longitud 8165 ft Anchura 148 ft
Elevación 1786 ft Umbral 0 ft Rumbo 356
Frecuencias del aeropuerto
Tipo APP Nombre APP Frecuencia 118.775 MHZ
Tipo GND Nombre GND Frecuencia 118 MHZ
Tipo RMP Nombre RAMP OPR Frecuencia 136.8 MHZ
Tipo TWR Nombre TWR Frecuencia 120.125 MHZ
Radioayudas del aeropuerto
Información meteorológica del aeropuerto y NOTAM
ADDS - METARS form results

(2202 UTC 19 May 2022)
Data provider http://aviationweather.gov/metar/data/
 
METAR text: BKPR 192200Z 00000KT CAVOK 11/02 Q1028 NOSIG
Conditions at: BKPR (PRISHTINA , KV) observed 2200 UTC 19 May 2022
Temperature: 11.0°C (52°F)
Dewpoint: 2.0°C (36°F) [RH = 54%]
Pressure (altimeter): 30.35 inches Hg (1028.0 mb)
Winds: calm
Visibility: 6 or more miles (10+ km)
Ceiling: ceiling and visibility are OK
Clouds: unknown
Weather: no significant weather observed at this time

METAR text: BKPR 192130Z VRB01KT CAVOK 10/02 Q1028 NOSIG
Conditions at: BKPR (PRISHTINA , KV) observed 2130 UTC 19 May 2022
Temperature: 10.0°C (50°F)
Dewpoint: 2.0°C (36°F) [RH = 57%]
Pressure (altimeter): 30.35 inches Hg (1028.0 mb)
Winds: variable direction winds at 1 MPH (1 knots; 0.5 m/s)
Visibility: 6 or more miles (10+ km)
Ceiling: ceiling and visibility are OK
Clouds: unknown
Weather: no significant weather observed at this time

Forecast for: BKPR (PRISHTINA , KV)
Text: TAF BKPR 191730Z 1918/2018 36006KT CAVOK
Forecast period: 1800 UTC 19 May 2022 to 1800 UTC 20 May 2022
Forecast type: FROM: standard forecast or significant change
Winds: from the N (360 degrees) at 7 MPH (6 knots; 3.1 m/s)
Visibility: 6 or more miles (10+ km)
Ceiling: unknown
Clouds: missing
Weather: NSW  (no significant weather)